Terminal Aerodrome Forecast
Issued by NWS Springfield, MO

Home | Current Version | Previous Version | Text Only | Print | Product List | Glossary On
Versions: 1 2 3 4 5 6 7 8 9 10 11 12 13 14 15
000
FTUS43 KSGF 281120
TAFSGF
TAF
KSGF 281120Z 2812/2912 26004KT P6SM FEW150
     FM281700 31008KT P6SM VCTS SCT050CB
     FM290100 02005KT P6SM FEW250
     FM291100 17004KT P6SM BKN130=

USA.gov is the U.S. government's official web portal to all federal, state and local government web resources and services.